sensor_id;sensor_type;location;lat;lon;timestamp;P1;durP1;ratioP1;P2;durP2;ratioP2
18100;SDS011;9177;49.156;8.142;2023-07-29T00:00:26;1.13;;;0.80;;
18100;SDS011;9177;49.156;8.142;2023-07-29T00:02:56;0.63;;;0.63;;
18100;SDS011;9177;49.156;8.142;2023-07-29T00:05:26;1.35;;;0.90;;
18100;SDS011;9177;49.156;8.142;2023-07-29T00:07:54;1.15;;;0.85;;
18100;SDS011;9177;49.156;8.142;2023-07-29T00:10:22;0.70;;;0.70;;
18100;SDS011;9177;49.156;8.142;2023-07-29T00:12:49;1.48;;;0.75;;
18100;SDS011;9177;49.156;8.142;2023-07-29T00:15:17;0.77;;;0.77;;
18100;SDS011;9177;49.156;8.142;2023-07-29T00:17:44;0.82;;;0.70;;
18100;SDS011;9177;49.156;8.142;2023-07-29T00:20:11;1.00;;;0.90;;
18100;SDS011;9177;49.156;8.142;2023-07-29T00:22:38;1.77;;;0.70;;
18100;SDS011;9177;49.156;8.142;2023-07-29T00:25:07;1.30;;;0.70;;
18100;SDS011;9177;49.156;8.142;2023-07-29T00:27:34;0.80;;;0.70;;
18100;SDS011;9177;49.156;8.142;2023-07-29T00:30:01;1.52;;;0.80;;
18100;SDS011;9177;49.156;8.142;2023-07-29T00:32:29;0.88;;;0.80;;
18100;SDS011;9177;49.156;8.142;2023-07-29T00:34:56;1.52;;;0.80;;
18100;SDS011;9177;49.156;8.142;2023-07-29T00:37:25;1.13;;;0.63;;
18100;SDS011;9177;49.156;8.142;2023-07-29T00:39:53;0.90;;;0.85;;
18100;SDS011;9177;49.156;8.142;2023-07-29T00:42:21;0.77;;;0.77;;
18100;SDS011;9177;49.156;8.142;2023-07-29T00:44:48;0.82;;;0.82;;
18100;SDS011;9177;49.156;8.142;2023-07-29T00:47:15;1.02;;;0.82;;
18100;SDS011;9177;49.156;8.142;2023-07-29T00:49:42;1.20;;;1.10;;
18100;SDS011;9177;49.156;8.142;2023-07-29T00:52:10;2.00;;;0.90;;
18100;SDS011;9177;49.156;8.142;2023-07-29T00:54:38;0.70;;;0.60;;
18100;SDS011;9177;49.156;8.142;2023-07-29T00:57:05;1.30;;;1.00;;
18100;SDS011;9177;49.156;8.142;2023-07-29T00:59:36;0.80;;;0.80;;
18100;SDS011;9177;49.156;8.142;2023-07-29T01:02:03;0.70;;;0.70;;
18100;SDS011;9177;49.156;8.142;2023-07-29T01:04:31;0.60;;;0.60;;
18100;SDS011;9177;49.156;8.142;2023-07-29T01:06:58;0.80;;;0.80;;
18100;SDS011;9177;49.156;8.142;2023-07-29T01:09:35;1.00;;;0.90;;
18100;SDS011;9177;49.156;8.142;2023-07-29T01:12:11;0.80;;;0.80;;
18100;SDS011;9177;49.156;8.142;2023-07-29T01:14:49;0.70;;;0.70;;
18100;SDS011;9177;49.156;8.142;2023-07-29T01:17:22;1.55;;;0.90;;
18100;SDS011;9177;49.156;8.142;2023-07-29T01:19:55;1.63;;;0.77;;
18100;SDS011;9177;49.156;8.142;2023-07-29T01:22:28;0.93;;;0.70;;
18100;SDS011;9177;49.156;8.142;2023-07-29T01:24:58;0.85;;;0.70;;
18100;SDS011;9177;49.156;8.142;2023-07-29T01:27:25;1.55;;;0.98;;
18100;SDS011;9177;49.156;8.142;2023-07-29T01:29:52;0.80;;;0.80;;
18100;SDS011;9177;49.156;8.142;2023-07-29T01:32:23;0.90;;;0.90;;
18100;SDS011;9177;49.156;8.142;2023-07-29T01:34:56;1.35;;;0.90;;
18100;SDS011;9177;49.156;8.142;2023-07-29T01:37:26;1.20;;;0.80;;
18100;SDS011;9177;49.156;8.142;2023-07-29T01:39:59;0.80;;;0.80;;
18100;SDS011;9177;49.156;8.142;2023-07-29T01:42:26;0.80;;;0.80;;
18100;SDS011;9177;49.156;8.142;2023-07-29T01:44:54;1.55;;;0.90;;
18100;SDS011;9177;49.156;8.142;2023-07-29T01:47:21;0.82;;;0.82;;
18100;SDS011;9177;49.156;8.142;2023-07-29T01:49:48;1.30;;;1.00;;
18100;SDS011;9177;49.156;8.142;2023-07-29T01:52:15;0.80;;;0.80;;
18100;SDS011;9177;49.156;8.142;2023-07-29T01:54:42;0.80;;;0.80;;
18100;SDS011;9177;49.156;8.142;2023-07-29T01:57:10;2.33;;;0.80;;
18100;SDS011;9177;49.156;8.142;2023-07-29T01:59:39;0.80;;;0.80;;
18100;SDS011;9177;49.156;8.142;2023-07-29T02:02:06;0.93;;;0.90;;
18100;SDS011;9177;49.156;8.142;2023-07-29T02:04:33;0.93;;;0.93;;
18100;SDS011;9177;49.156;8.142;2023-07-29T02:07:00;0.85;;;0.85;;
18100;SDS011;9177;49.156;8.142;2023-07-29T02:09:27;1.50;;;0.80;;
18100;SDS011;9177;49.156;8.142;2023-07-29T02:11:54;0.85;;;0.85;;
18100;SDS011;9177;49.156;8.142;2023-07-29T02:14:22;1.23;;;0.88;;
18100;SDS011;9177;49.156;8.142;2023-07-29T02:16:49;1.17;;;0.82;;
18100;SDS011;9177;49.156;8.142;2023-07-29T02:19:16;1.50;;;0.93;;
18100;SDS011;9177;49.156;8.142;2023-07-29T02:21:43;0.75;;;0.70;;
18100;SDS011;9177;49.156;8.142;2023-07-29T02:24:10;0.90;;;0.90;;
18100;SDS011;9177;49.156;8.142;2023-07-29T02:26:37;0.70;;;0.70;;
18100;SDS011;9177;49.156;8.142;2023-07-29T02:29:03;1.00;;;0.80;;
18100;SDS011;9177;49.156;8.142;2023-07-29T02:31:32;0.88;;;0.80;;
18100;SDS011;9177;49.156;8.142;2023-07-29T02:34:00;1.13;;;0.90;;
18100;SDS011;9177;49.156;8.142;2023-07-29T02:36:26;1.00;;;0.90;;
18100;SDS011;9177;49.156;8.142;2023-07-29T02:38:53;1.10;;;0.80;;
18100;SDS011;9177;49.156;8.142;2023-07-29T02:41:20;0.70;;;0.70;;
18100;SDS011;9177;49.156;8.142;2023-07-29T02:43:48;0.85;;;0.82;;
18100;SDS011;9177;49.156;8.142;2023-07-29T02:46:16;0.70;;;0.70;;
18100;SDS011;9177;49.156;8.142;2023-07-29T02:48:45;0.90;;;0.70;;
18100;SDS011;9177;49.156;8.142;2023-07-29T02:51:12;0.75;;;0.75;;
18100;SDS011;9177;49.156;8.142;2023-07-29T02:53:39;0.80;;;0.80;;
18100;SDS011;9177;49.156;8.142;2023-07-29T02:56:06;1.05;;;0.95;;
18100;SDS011;9177;49.156;8.142;2023-07-29T02:58:34;0.90;;;0.80;;
18100;SDS011;9177;49.156;8.142;2023-07-29T03:01:01;0.80;;;0.80;;
18100;SDS011;9177;49.156;8.142;2023-07-29T03:03:28;1.00;;;0.90;;
18100;SDS011;9177;49.156;8.142;2023-07-29T03:05:58;0.70;;;0.70;;
18100;SDS011;9177;49.156;8.142;2023-07-29T03:08:26;1.50;;;0.90;;
18100;SDS011;9177;49.156;8.142;2023-07-29T03:10:53;0.70;;;0.70;;
18100;SDS011;9177;49.156;8.142;2023-07-29T03:13:20;0.70;;;0.70;;
18100;SDS011;9177;49.156;8.142;2023-07-29T03:15:47;0.85;;;0.80;;
18100;SDS011;9177;49.156;8.142;2023-07-29T03:18:14;0.70;;;0.70;;
18100;SDS011;9177;49.156;8.142;2023-07-29T03:20:41;1.13;;;0.95;;
18100;SDS011;9177;49.156;8.142;2023-07-29T03:23:09;0.80;;;0.80;;
18100;SDS011;9177;49.156;8.142;2023-07-29T03:25:36;0.80;;;0.80;;
18100;SDS011;9177;49.156;8.142;2023-07-29T03:28:03;1.13;;;0.90;;
18100;SDS011;9177;49.156;8.142;2023-07-29T03:30:30;1.02;;;0.90;;
18100;SDS011;9177;49.156;8.142;2023-07-29T03:32:57;0.60;;;0.60;;
18100;SDS011;9177;49.156;8.142;2023-07-29T03:35:24;1.17;;;0.65;;
18100;SDS011;9177;49.156;8.142;2023-07-29T03:37:50;0.95;;;0.80;;
18100;SDS011;9177;49.156;8.142;2023-07-29T03:40:19;1.70;;;0.90;;
18100;SDS011;9177;49.156;8.142;2023-07-29T03:42:46;0.80;;;0.63;;
18100;SDS011;9177;49.156;8.142;2023-07-29T03:45:13;1.90;;;0.70;;
18100;SDS011;9177;49.156;8.142;2023-07-29T03:47:40;0.80;;;0.80;;
18100;SDS011;9177;49.156;8.142;2023-07-29T03:50:07;0.68;;;0.68;;
18100;SDS011;9177;49.156;8.142;2023-07-29T03:52:34;0.90;;;0.80;;
18100;SDS011;9177;49.156;8.142;2023-07-29T03:55:01;0.88;;;0.80;;
18100;SDS011;9177;49.156;8.142;2023-07-29T03:57:29;0.73;;;0.73;;
18100;SDS011;9177;49.156;8.142;2023-07-29T03:59:56;1.05;;;0.82;;
18100;SDS011;9177;49.156;8.142;2023-07-29T04:02:23;0.70;;;0.70;;
18100;SDS011;9177;49.156;8.142;2023-07-29T04:04:50;0.70;;;0.70;;
18100;SDS011;9177;49.156;8.142;2023-07-29T04:07:17;0.70;;;0.70;;
18100;SDS011;9177;49.156;8.142;2023-07-29T04:09:43;0.90;;;0.90;;
18100;SDS011;9177;49.156;8.142;2023-07-29T04:12:10;0.82;;;0.70;;
18100;SDS011;9177;49.156;8.142;2023-07-29T04:14:38;0.80;;;0.60;;
18100;SDS011;9177;49.156;8.142;2023-07-29T04:17:05;0.80;;;0.80;;
18100;SDS011;9177;49.156;8.142;2023-07-29T04:19:38;0.73;;;0.70;;
18100;SDS011;9177;49.156;8.142;2023-07-29T04:22:05;0.80;;;0.80;;
18100;SDS011;9177;49.156;8.142;2023-07-29T04:24:32;0.77;;;0.77;;
18100;SDS011;9177;49.156;8.142;2023-07-29T04:26:58;0.80;;;0.77;;
18100;SDS011;9177;49.156;8.142;2023-07-29T04:29:25;0.80;;;0.80;;
18100;SDS011;9177;49.156;8.142;2023-07-29T04:31:53;0.85;;;0.82;;
18100;SDS011;9177;49.156;8.142;2023-07-29T04:34:20;1.00;;;0.90;;
18100;SDS011;9177;49.156;8.142;2023-07-29T04:36:47;0.88;;;0.80;;
18100;SDS011;9177;49.156;8.142;2023-07-29T04:39:14;1.20;;;0.90;;
18100;SDS011;9177;49.156;8.142;2023-07-29T04:41:41;0.80;;;0.80;;
18100;SDS011;9177;49.156;8.142;2023-07-29T04:44:08;1.02;;;0.70;;
18100;SDS011;9177;49.156;8.142;2023-07-29T04:46:35;0.57;;;0.57;;
18100;SDS011;9177;49.156;8.142;2023-07-29T04:49:05;1.00;;;0.90;;
18100;SDS011;9177;49.156;8.142;2023-07-29T04:51:32;0.80;;;0.80;;
18100;SDS011;9177;49.156;8.142;2023-07-29T04:53:59;1.38;;;1.00;;
18100;SDS011;9177;49.156;8.142;2023-07-29T04:56:25;1.33;;;0.80;;
18100;SDS011;9177;49.156;8.142;2023-07-29T04:58:52;0.68;;;0.68;;
18100;SDS011;9177;49.156;8.142;2023-07-29T05:01:20;0.60;;;0.60;;
18100;SDS011;9177;49.156;8.142;2023-07-29T05:03:46;0.90;;;0.70;;
18100;SDS011;9177;49.156;8.142;2023-07-29T05:06:15;1.08;;;0.85;;
18100;SDS011;9177;49.156;8.142;2023-07-29T05:08:42;0.90;;;0.70;;
18100;SDS011;9177;49.156;8.142;2023-07-29T05:11:09;0.73;;;0.73;;
18100;SDS011;9177;49.156;8.142;2023-07-29T05:13:36;1.02;;;0.93;;
18100;SDS011;9177;49.156;8.142;2023-07-29T05:16:03;0.98;;;0.80;;
18100;SDS011;9177;49.156;8.142;2023-07-29T05:18:30;0.70;;;0.70;;
18100;SDS011;9177;49.156;8.142;2023-07-29T05:20:57;1.08;;;0.88;;
18100;SDS011;9177;49.156;8.142;2023-07-29T05:23:25;1.08;;;0.85;;
18100;SDS011;9177;49.156;8.142;2023-07-29T05:25:52;0.80;;;0.80;;
18100;SDS011;9177;49.156;8.142;2023-07-29T05:28:19;1.13;;;0.90;;
18100;SDS011;9177;49.156;8.142;2023-07-29T05:30:46;1.40;;;0.90;;
18100;SDS011;9177;49.156;8.142;2023-07-29T05:33:12;0.60;;;0.60;;
18100;SDS011;9177;49.156;8.142;2023-07-29T05:35:39;0.80;;;0.70;;
18100;SDS011;9177;49.156;8.142;2023-07-29T05:38:06;0.80;;;0.80;;
18100;SDS011;9177;49.156;8.142;2023-07-29T05:40:35;1.00;;;0.80;;
18100;SDS011;9177;49.156;8.142;2023-07-29T05:43:02;1.23;;;0.80;;
18100;SDS011;9177;49.156;8.142;2023-07-29T05:45:29;0.75;;;0.75;;
18100;SDS011;9177;49.156;8.142;2023-07-29T05:47:56;0.85;;;0.85;;
18100;SDS011;9177;49.156;8.142;2023-07-29T05:50:23;1.15;;;0.60;;
18100;SDS011;9177;49.156;8.142;2023-07-29T05:52:50;0.70;;;0.65;;
18100;SDS011;9177;49.156;8.142;2023-07-29T05:55:17;0.82;;;0.80;;
18100;SDS011;9177;49.156;8.142;2023-07-29T05:57:45;1.08;;;0.98;;
18100;SDS011;9177;49.156;8.142;2023-07-29T06:00:12;0.77;;;0.77;;
18100;SDS011;9177;49.156;8.142;2023-07-29T06:02:39;0.70;;;0.70;;
18100;SDS011;9177;49.156;8.142;2023-07-29T06:05:07;0.63;;;0.63;;
18100;SDS011;9177;49.156;8.142;2023-07-29T06:07:34;0.75;;;0.75;;
18100;SDS011;9177;49.156;8.142;2023-07-29T06:10:00;1.77;;;0.80;;
18100;SDS011;9177;49.156;8.142;2023-07-29T06:12:27;1.13;;;0.70;;
18100;SDS011;9177;49.156;8.142;2023-07-29T06:15:00;0.98;;;0.88;;
18100;SDS011;9177;49.156;8.142;2023-07-29T06:17:27;1.60;;;0.70;;
18100;SDS011;9177;49.156;8.142;2023-07-29T06:19:54;0.77;;;0.75;;
18100;SDS011;9177;49.156;8.142;2023-07-29T06:22:21;1.05;;;0.80;;
18100;SDS011;9177;49.156;8.142;2023-07-29T06:24:48;0.70;;;0.70;;
18100;SDS011;9177;49.156;8.142;2023-07-29T06:27:15;0.77;;;0.68;;
18100;SDS011;9177;49.156;8.142;2023-07-29T06:29:42;1.52;;;1.00;;
18100;SDS011;9177;49.156;8.142;2023-07-29T06:32:10;0.95;;;0.60;;
18100;SDS011;9177;49.156;8.142;2023-07-29T06:34:37;0.90;;;0.70;;
18100;SDS011;9177;49.156;8.142;2023-07-29T06:37:04;0.80;;;0.80;;
18100;SDS011;9177;49.156;8.142;2023-07-29T06:39:31;0.95;;;0.80;;
18100;SDS011;9177;49.156;8.142;2023-07-29T06:41:58;1.30;;;1.00;;
18100;SDS011;9177;49.156;8.142;2023-07-29T06:44:25;0.70;;;0.70;;
18100;SDS011;9177;49.156;8.142;2023-07-29T06:46:52;1.00;;;0.90;;
18100;SDS011;9177;49.156;8.142;2023-07-29T06:49:20;0.75;;;0.73;;
18100;SDS011;9177;49.156;8.142;2023-07-29T06:51:47;1.10;;;0.90;;
18100;SDS011;9177;49.156;8.142;2023-07-29T06:54:15;0.70;;;0.57;;
18100;SDS011;9177;49.156;8.142;2023-07-29T06:56:42;0.80;;;0.80;;
18100;SDS011;9177;49.156;8.142;2023-07-29T06:59:09;0.95;;;0.85;;
18100;SDS011;9177;49.156;8.142;2023-07-29T07:01:36;1.00;;;0.90;;
18100;SDS011;9177;49.156;8.142;2023-07-29T07:04:03;0.95;;;0.95;;
18100;SDS011;9177;49.156;8.142;2023-07-29T07:06:38;0.80;;;0.80;;
18100;SDS011;9177;49.156;8.142;2023-07-29T07:09:08;0.90;;;0.80;;
18100;SDS011;9177;49.156;8.142;2023-07-29T07:11:35;1.52;;;1.10;;
18100;SDS011;9177;49.156;8.142;2023-07-29T07:14:02;1.75;;;0.88;;
18100;SDS011;9177;49.156;8.142;2023-07-29T07:16:29;4.28;;;2.10;;
18100;SDS011;9177;49.156;8.142;2023-07-29T07:18:56;2.90;;;2.15;;
18100;SDS011;9177;49.156;8.142;2023-07-29T07:21:23;0.80;;;0.80;;
18100;SDS011;9177;49.156;8.142;2023-07-29T07:23:51;1.48;;;1.10;;
18100;SDS011;9177;49.156;8.142;2023-07-29T07:26:20;1.90;;;1.00;;
18100;SDS011;9177;49.156;8.142;2023-07-29T07:28:47;3.55;;;2.08;;
18100;SDS011;9177;49.156;8.142;2023-07-29T07:31:14;3.75;;;1.45;;
18100;SDS011;9177;49.156;8.142;2023-07-29T07:33:42;1.88;;;1.25;;
18100;SDS011;9177;49.156;8.142;2023-07-29T07:36:09;4.78;;;2.17;;
18100;SDS011;9177;49.156;8.142;2023-07-29T07:38:36;3.17;;;1.95;;
18100;SDS011;9177;49.156;8.142;2023-07-29T07:41:05;1.75;;;1.50;;
18100;SDS011;9177;49.156;8.142;2023-07-29T07:43:32;1.45;;;1.15;;
18100;SDS011;9177;49.156;8.142;2023-07-29T07:46:03;3.22;;;1.67;;
18100;SDS011;9177;49.156;8.142;2023-07-29T07:48:30;2.35;;;1.63;;
18100;SDS011;9177;49.156;8.142;2023-07-29T07:50:58;4.20;;;2.35;;
18100;SDS011;9177;49.156;8.142;2023-07-29T07:53:25;2.67;;;1.60;;
18100;SDS011;9177;49.156;8.142;2023-07-29T07:55:52;4.35;;;3.05;;
18100;SDS011;9177;49.156;8.142;2023-07-29T07:58:20;6.40;;;3.00;;
18100;SDS011;9177;49.156;8.142;2023-07-29T08:00:47;5.18;;;3.00;;
18100;SDS011;9177;49.156;8.142;2023-07-29T08:03:14;5.00;;;3.13;;
18100;SDS011;9177;49.156;8.142;2023-07-29T08:05:41;6.40;;;3.70;;
18100;SDS011;9177;49.156;8.142;2023-07-29T08:08:08;4.10;;;3.10;;
18100;SDS011;9177;49.156;8.142;2023-07-29T08:10:35;6.38;;;3.70;;
18100;SDS011;9177;49.156;8.142;2023-07-29T08:13:05;3.53;;;2.42;;
18100;SDS011;9177;49.156;8.142;2023-07-29T08:15:47;5.90;;;3.30;;
18100;SDS011;9177;49.156;8.142;2023-07-29T08:18:14;3.15;;;2.75;;
18100;SDS011;9177;49.156;8.142;2023-07-29T08:20:49;7.15;;;3.17;;
18100;SDS011;9177;49.156;8.142;2023-07-29T08:23:19;6.53;;;3.30;;
18100;SDS011;9177;49.156;8.142;2023-07-29T08:25:50;2.70;;;2.30;;
18100;SDS011;9177;49.156;8.142;2023-07-29T08:28:21;3.47;;;1.80;;
18100;SDS011;9177;49.156;8.142;2023-07-29T08:30:50;5.13;;;2.22;;
18100;SDS011;9177;49.156;8.142;2023-07-29T08:33:17;2.63;;;2.13;;
18100;SDS011;9177;49.156;8.142;2023-07-29T08:35:44;3.22;;;1.80;;
18100;SDS011;9177;49.156;8.142;2023-07-29T08:38:11;3.00;;;1.90;;
18100;SDS011;9177;49.156;8.142;2023-07-29T08:40:42;2.28;;;1.90;;
18100;SDS011;9177;49.156;8.142;2023-07-29T08:43:12;2.28;;;1.85;;
18100;SDS011;9177;49.156;8.142;2023-07-29T08:45:42;3.80;;;2.00;;
18100;SDS011;9177;49.156;8.142;2023-07-29T08:48:12;2.60;;;1.80;;
18100;SDS011;9177;49.156;8.142;2023-07-29T08:50:42;1.63;;;1.48;;
18100;SDS011;9177;49.156;8.142;2023-07-29T08:53:11;2.15;;;1.67;;
18100;SDS011;9177;49.156;8.142;2023-07-29T08:55:39;2.35;;;1.67;;
18100;SDS011;9177;49.156;8.142;2023-07-29T08:58:09;2.92;;;1.58;;
18100;SDS011;9177;49.156;8.142;2023-07-29T09:00:37;2.05;;;1.60;;
18100;SDS011;9177;49.156;8.142;2023-07-29T09:03:05;3.13;;;1.52;;
18100;SDS011;9177;49.156;8.142;2023-07-29T09:05:34;2.50;;;1.67;;
18100;SDS011;9177;49.156;8.142;2023-07-29T09:08:02;2.38;;;1.50;;
18100;SDS011;9177;49.156;8.142;2023-07-29T09:10:30;2.80;;;1.83;;
18100;SDS011;9177;49.156;8.142;2023-07-29T09:13:02;2.38;;;1.40;;
18100;SDS011;9177;49.156;8.142;2023-07-29T09:15:31;2.25;;;1.73;;
18100;SDS011;9177;49.156;8.142;2023-07-29T09:18:00;1.70;;;1.60;;
18100;SDS011;9177;49.156;8.142;2023-07-29T09:20:37;2.17;;;1.73;;
18100;SDS011;9177;49.156;8.142;2023-07-29T09:23:06;2.10;;;1.45;;
18100;SDS011;9177;49.156;8.142;2023-07-29T09:25:34;3.40;;;1.77;;
18100;SDS011;9177;49.156;8.142;2023-07-29T09:28:02;2.30;;;1.80;;
18100;SDS011;9177;49.156;8.142;2023-07-29T09:30:35;1.60;;;1.42;;
18100;SDS011;9177;49.156;8.142;2023-07-29T09:33:03;2.63;;;1.55;;
18100;SDS011;9177;49.156;8.142;2023-07-29T09:35:32;3.28;;;1.80;;
18100;SDS011;9177;49.156;8.142;2023-07-29T09:38:01;2.35;;;1.60;;
18100;SDS011;9177;49.156;8.142;2023-07-29T09:40:34;2.08;;;1.60;;
18100;SDS011;9177;49.156;8.142;2023-07-29T09:43:02;1.95;;;1.63;;
18100;SDS011;9177;49.156;8.142;2023-07-29T09:45:33;2.22;;;1.48;;
18100;SDS011;9177;49.156;8.142;2023-07-29T09:48:01;2.10;;;1.70;;
18100;SDS011;9177;49.156;8.142;2023-07-29T09:50:30;2.80;;;1.77;;
18100;SDS011;9177;49.156;8.142;2023-07-29T09:52:57;2.20;;;1.73;;
18100;SDS011;9177;49.156;8.142;2023-07-29T09:55:26;2.63;;;1.80;;
18100;SDS011;9177;49.156;8.142;2023-07-29T09:57:54;2.22;;;1.50;;
18100;SDS011;9177;49.156;8.142;2023-07-29T10:00:26;2.53;;;1.63;;
18100;SDS011;9177;49.156;8.142;2023-07-29T10:02:54;1.83;;;1.30;;
18100;SDS011;9177;49.156;8.142;2023-07-29T10:05:22;1.67;;;1.23;;
18100;SDS011;9177;49.156;8.142;2023-07-29T10:07:51;3.47;;;1.23;;
18100;SDS011;9177;49.156;8.142;2023-07-29T10:10:20;2.20;;;1.67;;
18100;SDS011;9177;49.156;8.142;2023-07-29T10:12:49;2.28;;;1.75;;
18100;SDS011;9177;49.156;8.142;2023-07-29T10:15:16;2.45;;;1.65;;
18100;SDS011;9177;49.156;8.142;2023-07-29T10:17:44;2.65;;;1.55;;
18100;SDS011;9177;49.156;8.142;2023-07-29T10:20:13;2.50;;;1.60;;
18100;SDS011;9177;49.156;8.142;2023-07-29T10:22:41;3.15;;;1.58;;
18100;SDS011;9177;49.156;8.142;2023-07-29T10:25:14;2.47;;;1.83;;
18100;SDS011;9177;49.156;8.142;2023-07-29T10:27:47;2.20;;;1.55;;
18100;SDS011;9177;49.156;8.142;2023-07-29T10:30:18;2.70;;;1.58;;
18100;SDS011;9177;49.156;8.142;2023-07-29T10:32:46;3.90;;;1.95;;
18100;SDS011;9177;49.156;8.142;2023-07-29T10:35:15;3.20;;;1.60;;
18100;SDS011;9177;49.156;8.142;2023-07-29T10:37:43;2.20;;;1.20;;
18100;SDS011;9177;49.156;8.142;2023-07-29T10:40:11;2.00;;;1.48;;
18100;SDS011;9177;49.156;8.142;2023-07-29T10:42:38;3.15;;;1.67;;
18100;SDS011;9177;49.156;8.142;2023-07-29T10:45:36;3.35;;;1.55;;
18100;SDS011;9177;49.156;8.142;2023-07-29T10:48:05;3.63;;;1.67;;
18100;SDS011;9177;49.156;8.142;2023-07-29T10:50:34;1.95;;;1.20;;
18100;SDS011;9177;49.156;8.142;2023-07-29T10:53:01;2.08;;;1.50;;
18100;SDS011;9177;49.156;8.142;2023-07-29T10:55:29;2.92;;;1.30;;
18100;SDS011;9177;49.156;8.142;2023-07-29T10:58:07;2.10;;;1.60;;
18100;SDS011;9177;49.156;8.142;2023-07-29T11:00:43;2.42;;;1.30;;
18100;SDS011;9177;49.156;8.142;2023-07-29T11:03:12;2.45;;;1.48;;
18100;SDS011;9177;49.156;8.142;2023-07-29T11:05:45;2.22;;;1.65;;
18100;SDS011;9177;49.156;8.142;2023-07-29T11:08:21;1.95;;;1.60;;
18100;SDS011;9177;49.156;8.142;2023-07-29T11:11:02;1.67;;;1.33;;
18100;SDS011;9177;49.156;8.142;2023-07-29T11:13:33;2.28;;;1.30;;
18100;SDS011;9177;49.156;8.142;2023-07-29T11:16:04;2.67;;;1.50;;
18100;SDS011;9177;49.156;8.142;2023-07-29T11:18:33;1.98;;;1.65;;
18100;SDS011;9177;49.156;8.142;2023-07-29T11:21:01;2.00;;;1.58;;
18100;SDS011;9177;49.156;8.142;2023-07-29T11:23:30;3.03;;;1.50;;
18100;SDS011;9177;49.156;8.142;2023-07-29T11:25:58;2.20;;;1.40;;
18100;SDS011;9177;49.156;8.142;2023-07-29T11:28:26;1.90;;;1.48;;
18100;SDS011;9177;49.156;8.142;2023-07-29T11:30:55;1.60;;;1.50;;
18100;SDS011;9177;49.156;8.142;2023-07-29T11:33:24;1.60;;;1.50;;
18100;SDS011;9177;49.156;8.142;2023-07-29T11:35:53;8.00;;;2.10;;
18100;SDS011;9177;49.156;8.142;2023-07-29T11:38:21;4.43;;;1.60;;
18100;SDS011;9177;49.156;8.142;2023-07-29T11:40:55;4.70;;;1.80;;
18100;SDS011;9177;49.156;8.142;2023-07-29T11:43:24;4.97;;;1.67;;
18100;SDS011;9177;49.156;8.142;2023-07-29T11:45:52;7.95;;;1.83;;
18100;SDS011;9177;49.156;8.142;2023-07-29T11:48:27;9.13;;;1.48;;
18100;SDS011;9177;49.156;8.142;2023-07-29T11:50:57;3.42;;;1.73;;
18100;SDS011;9177;49.156;8.142;2023-07-29T11:53:25;6.63;;;2.00;;
18100;SDS011;9177;49.156;8.142;2023-07-29T11:55:55;6.05;;;1.75;;
18100;SDS011;9177;49.156;8.142;2023-07-29T11:58:22;6.43;;;1.70;;
18100;SDS011;9177;49.156;8.142;2023-07-29T12:00:50;8.70;;;1.88;;
18100;SDS011;9177;49.156;8.142;2023-07-29T12:03:17;5.78;;;1.60;;
18100;SDS011;9177;49.156;8.142;2023-07-29T12:05:46;7.43;;;2.03;;
18100;SDS011;9177;49.156;8.142;2023-07-29T12:08:14;8.18;;;2.35;;
18100;SDS011;9177;49.156;8.142;2023-07-29T12:10:42;10.25;;;2.58;;
18100;SDS011;9177;49.156;8.142;2023-07-29T12:13:09;8.73;;;2.30;;
18100;SDS011;9177;49.156;8.142;2023-07-29T12:15:37;8.23;;;2.17;;
18100;SDS011;9177;49.156;8.142;2023-07-29T12:18:06;6.35;;;2.13;;
18100;SDS011;9177;49.156;8.142;2023-07-29T12:20:33;7.32;;;1.80;;
18100;SDS011;9177;49.156;8.142;2023-07-29T12:23:03;8.77;;;2.03;;
18100;SDS011;9177;49.156;8.142;2023-07-29T12:25:32;9.30;;;2.03;;
18100;SDS011;9177;49.156;8.142;2023-07-29T12:28:03;8.98;;;1.63;;
18100;SDS011;9177;49.156;8.142;2023-07-29T12:30:31;7.30;;;1.88;;
18100;SDS011;9177;49.156;8.142;2023-07-29T12:32:59;9.13;;;2.00;;
18100;SDS011;9177;49.156;8.142;2023-07-29T12:35:33;5.93;;;2.00;;
18100;SDS011;9177;49.156;8.142;2023-07-29T12:38:03;4.18;;;2.13;;
18100;SDS011;9177;49.156;8.142;2023-07-29T12:40:30;7.15;;;1.70;;
18100;SDS011;9177;49.156;8.142;2023-07-29T12:42:57;7.60;;;1.92;;
18100;SDS011;9177;49.156;8.142;2023-07-29T12:45:24;7.60;;;1.95;;
18100;SDS011;9177;49.156;8.142;2023-07-29T12:47:53;7.57;;;2.03;;
18100;SDS011;9177;49.156;8.142;2023-07-29T12:50:22;4.65;;;1.70;;
18100;SDS011;9177;49.156;8.142;2023-07-29T12:52:49;6.40;;;1.60;;
18100;SDS011;9177;49.156;8.142;2023-07-29T12:55:17;5.20;;;2.08;;
18100;SDS011;9177;49.156;8.142;2023-07-29T12:57:45;6.10;;;1.85;;
18100;SDS011;9177;49.156;8.142;2023-07-29T13:00:12;4.18;;;1.70;;
18100;SDS011;9177;49.156;8.142;2023-07-29T13:02:39;10.13;;;2.13;;
18100;SDS011;9177;49.156;8.142;2023-07-29T13:05:08;8.43;;;2.13;;
18100;SDS011;9177;49.156;8.142;2023-07-29T13:07:37;20.85;;;3.38;;
18100;SDS011;9177;49.156;8.142;2023-07-29T13:10:04;15.70;;;2.75;;
18100;SDS011;9177;49.156;8.142;2023-07-29T13:12:33;21.10;;;3.03;;
18100;SDS011;9177;49.156;8.142;2023-07-29T13:15:00;37.70;;;4.32;;
18100;SDS011;9177;49.156;8.142;2023-07-29T13:17:27;18.40;;;3.45;;
18100;SDS011;9177;49.156;8.142;2023-07-29T13:19:54;17.75;;;3.03;;
18100;SDS011;9177;49.156;8.142;2023-07-29T13:22:21;20.00;;;3.00;;
18100;SDS011;9177;49.156;8.142;2023-07-29T13:24:48;11.60;;;2.30;;
18100;SDS011;9177;49.156;8.142;2023-07-29T13:27:16;11.07;;;2.47;;
18100;SDS011;9177;49.156;8.142;2023-07-29T13:29:44;12.95;;;2.30;;
18100;SDS011;9177;49.156;8.142;2023-07-29T13:32:12;12.48;;;2.50;;
18100;SDS011;9177;49.156;8.142;2023-07-29T13:34:38;14.52;;;3.10;;
18100;SDS011;9177;49.156;8.142;2023-07-29T13:37:06;35.67;;;4.82;;
18100;SDS011;9177;49.156;8.142;2023-07-29T13:39:33;35.85;;;4.93;;
18100;SDS011;9177;49.156;8.142;2023-07-29T13:42:00;28.92;;;3.92;;
18100;SDS011;9177;49.156;8.142;2023-07-29T13:44:27;30.00;;;4.10;;
18100;SDS011;9177;49.156;8.142;2023-07-29T13:46:56;29.48;;;8.65;;
18100;SDS011;9177;49.156;8.142;2023-07-29T13:49:23;27.23;;;21.05;;
18100;SDS011;9177;49.156;8.142;2023-07-29T13:51:50;43.85;;;36.42;;
18100;SDS011;9177;49.156;8.142;2023-07-29T13:54:17;42.72;;;35.13;;
18100;SDS011;9177;49.156;8.142;2023-07-29T13:56:45;80.10;;;73.68;;
18100;SDS011;9177;49.156;8.142;2023-07-29T13:59:12;37.92;;;34.85;;
18100;SDS011;9177;49.156;8.142;2023-07-29T14:01:39;42.60;;;38.10;;
18100;SDS011;9177;49.156;8.142;2023-07-29T14:04:08;47.50;;;35.83;;
18100;SDS011;9177;49.156;8.142;2023-07-29T14:06:35;52.92;;;39.92;;
18100;SDS011;9177;49.156;8.142;2023-07-29T14:09:02;66.35;;;39.92;;
18100;SDS011;9177;49.156;8.142;2023-07-29T14:11:30;69.90;;;36.47;;
18100;SDS011;9177;49.156;8.142;2023-07-29T14:13:57;52.83;;;29.55;;
18100;SDS011;9177;49.156;8.142;2023-07-29T14:16:24;54.08;;;35.47;;
18100;SDS011;9177;49.156;8.142;2023-07-29T14:18:52;55.15;;;35.03;;
18100;SDS011;9177;49.156;8.142;2023-07-29T14:21:22;46.58;;;31.15;;
18100;SDS011;9177;49.156;8.142;2023-07-29T14:23:51;47.50;;;34.50;;
18100;SDS011;9177;49.156;8.142;2023-07-29T14:26:19;41.58;;;31.05;;
18100;SDS011;9177;49.156;8.142;2023-07-29T14:28:46;33.83;;;26.20;;
18100;SDS011;9177;49.156;8.142;2023-07-29T14:31:14;18.73;;;16.05;;
18100;SDS011;9177;49.156;8.142;2023-07-29T14:33:42;17.92;;;12.20;;
18100;SDS011;9177;49.156;8.142;2023-07-29T14:36:09;18.73;;;14.65;;
18100;SDS011;9177;49.156;8.142;2023-07-29T14:38:38;21.77;;;16.55;;
18100;SDS011;9177;49.156;8.142;2023-07-29T14:41:05;18.45;;;16.52;;
18100;SDS011;9177;49.156;8.142;2023-07-29T14:43:33;17.92;;;13.13;;
18100;SDS011;9177;49.156;8.142;2023-07-29T14:46:00;14.32;;;12.80;;
18100;SDS011;9177;49.156;8.142;2023-07-29T14:48:30;15.30;;;11.70;;
18100;SDS011;9177;49.156;8.142;2023-07-29T14:50:57;11.98;;;9.15;;
18100;SDS011;9177;49.156;8.142;2023-07-29T14:53:25;13.60;;;10.82;;
18100;SDS011;9177;49.156;8.142;2023-07-29T14:55:53;7.05;;;5.47;;
18100;SDS011;9177;49.156;8.142;2023-07-29T14:58:20;9.60;;;8.00;;
18100;SDS011;9177;49.156;8.142;2023-07-29T15:00:50;9.50;;;7.50;;
18100;SDS011;9177;49.156;8.142;2023-07-29T15:03:18;10.77;;;6.57;;